Time;durP1;ratioP1;P1;durP2;ratioP2;P2;SDS_P1;SDS_P2;PMS_P1;PMS_P2;Temp;Humidity;BMP_temperature;BMP_pressure;BME280_temperature;BME280_humidity;BME280_pressure;Samples;Min_cycle;Max_cycle;Signal;HPM_P1;HPM_P2
2023/10/06 00:00:42;;;;;;;;;14.33;13.67;;;;;15.98;58.89;102203.84;5015462;28;45521;-74
2023/10/06 00:03:14;;;;;;;;;18.00;13.67;;;;;16.04;59.07;102218.81;5014470;28;45598;-75
2023/10/06 00:05:48;;;;;;;;;17.67;15.33;;;;;16.01;59.51;102218.81;5013411;28;45422;-73
2023/10/06 00:08:17;;;;;;;;;20.33;12.33;;;;;15.74;59.43;102172.06;5013253;28;45956;-71
2023/10/06 00:10:51;;;;;;;;;14.33;13.00;;;;;15.67;59.21;102158.81;5014687;28;45848;-74
2023/10/06 00:13:29;;;;;;;;;18.67;14.67;;;;;16.05;59.34;102221.50;5013354;28;45505;-73
2023/10/06 00:15:56;;;;;;;;;18.33;15.67;;;;;15.85;59.27;102191.47;5015815;28;45735;-74
2023/10/06 00:18:23;;;;;;;;;12.67;12.00;;;;;16.01;59.63;102221.47;5015593;28;45422;-73
2023/10/06 00:20:56;;;;;;;;;15.67;13.67;;;;;16.03;59.76;102232.94;5017598;28;45425;-73
2023/10/06 00:23:23;;;;;;;;;19.00;15.00;;;;;16.04;60.06;102237.31;5017473;28;45929;-71
2023/10/06 00:26:00;;;;;;;;;15.33;12.67;;;;;16.02;60.03;102239.13;5017384;28;45469;-71
2023/10/06 00:28:26;;;;;;;;;19.67;13.33;;;;;15.40;59.80;102137.56;5016545;28;45492;-73
2023/10/06 00:30:56;;;;;;;;;16.67;12.00;;;;;15.84;60.45;102216.13;5017195;28;45323;-74
2023/10/06 00:33:32;;;;;;;;;17.33;14.00;;;;;15.97;60.20;102232.91;5017568;28;45366;-72
2023/10/06 00:36:14;;;;;;;;;15.33;11.00;;;;;16.00;59.91;102233.81;5017579;28;45413;-72
2023/10/06 00:38:50;;;;;;;;;16.33;15.67;;;;;15.96;60.08;102224.09;5016817;28;45792;-73
2023/10/06 00:41:17;;;;;;;;;23.33;18.33;;;;;15.57;60.10;102182.53;5016413;28;45524;-72
2023/10/06 00:43:46;;;;;;;;;19.33;16.33;;;;;15.85;60.68;102239.03;5015917;28;46635;-73
2023/10/06 00:46:18;;;;;;;;;14.33;14.33;;;;;15.71;60.82;102220.50;5016024;28;45565;-71
2023/10/06 00:48:45;;;;;;;;;15.67;12.67;;;;;15.69;61.22;102212.53;5015927;28;45437;-73
2023/10/06 00:51:13;;;;;;;;;17.33;15.67;;;;;15.74;61.14;102235.47;5016272;28;45498;-72
2023/10/06 00:53:43;;;;;;;;;20.00;16.00;;;;;15.64;61.48;102232.75;5017663;28;45363;-73
2023/10/06 00:56:10;;;;;;;;;16.00;14.33;;;;;15.35;62.04;102190.38;5016306;28;45643;-72
2023/10/06 00:58:41;;;;;;;;;16.33;14.33;;;;;15.55;61.98;102224.78;5016116;28;45462;-72
2023/10/06 01:01:13;;;;;;;;;17.33;12.33;;;;;15.33;62.12;102194.75;5017479;28;45446;-72
2023/10/06 01:03:41;;;;;;;;;26.00;16.00;;;;;15.53;61.83;102208.03;5015488;28;45550;-73
2023/10/06 01:06:12;;;;;;;;;19.00;16.00;;;;;15.64;61.89;102230.09;5001586;28;45582;-73
2023/10/06 01:08:39;;;;;;;;;16.33;15.00;;;;;15.54;61.97;102208.91;5008573;28;45429;-73
2023/10/06 01:11:20;;;;;;;;;18.33;16.00;;;;;15.54;62.30;102225.66;5012031;28;45433;-73
2023/10/06 01:13:55;;;;;;;;;26.00;14.33;;;;;15.52;62.06;102229.13;5005672;28;46288;-72
2023/10/06 01:16:34;;;;;;;;;19.67;18.00;;;;;15.39;62.76;102215.00;5006463;28;45486;-73
2023/10/06 01:21:59;;;;;;;;;18.33;13.33;;;;;15.32;62.95;102207.94;5002584;28;45363;-73
2023/10/06 01:24:37;;;;;;;;;23.00;18.33;;;;;15.33;62.91;102214.97;5007993;28;46707;-72
2023/10/06 01:27:06;;;;;;;;;16.00;15.00;;;;;15.32;63.10;102213.19;4998197;28;45471;-71
2023/10/06 01:29:32;;;;;;;;;19.67;15.33;;;;;15.25;63.50;102209.63;5000146;28;45427;-72
2023/10/06 01:32:04;;;;;;;;;20.33;16.67;;;;;15.21;63.56;102207.84;5009300;28;45312;-72
2023/10/06 01:34:34;;;;;;;;;17.67;15.67;;;;;15.18;63.57;102203.44;5012488;28;45463;-70
2023/10/06 01:37:03;;;;;;;;;20.33;16.00;;;;;15.14;63.84;102212.22;5009984;28;45585;-72
2023/10/06 01:39:31;;;;;;;;;18.67;13.67;;;;;15.05;63.96;102193.69;5018394;28;45657;-74
2023/10/06 01:42:00;;;;;;;;;18.67;15.33;;;;;14.98;64.07;102187.47;5020409;28;45438;-72
2023/10/06 01:44:27;;;;;;;;;15.33;14.33;;;;;15.07;63.82;102199.88;5019157;28;45994;-74
2023/10/06 01:46:55;;;;;;;;;17.67;12.67;;;;;15.10;63.80;102193.72;5018818;28;45520;-73
2023/10/06 01:49:22;;;;;;;;;18.67;14.00;;;;;14.87;64.26;102162.78;5018109;28;45339;-72
2023/10/06 01:51:50;;;;;;;;;16.33;14.33;;;;;14.78;64.14;102142.50;5018839;28;45976;-73
2023/10/06 01:54:18;;;;;;;;;15.00;13.33;;;;;14.91;64.39;102161.06;5018549;28;45511;-70
2023/10/06 01:56:46;;;;;;;;;20.00;16.33;;;;;15.09;64.04;102203.41;5017813;28;45467;-73
2023/10/06 01:59:14;;;;;;;;;14.00;12.67;;;;;15.04;64.43;102197.19;5019447;28;45772;-74
2023/10/06 02:01:41;;;;;;;;;25.33;18.00;;;;;14.98;64.55;102195.41;5019669;28;45458;-73
2023/10/06 02:04:22;;;;;;;;;20.00;14.33;;;;;14.94;64.05;102164.56;5019598;28;45525;-74
2023/10/06 02:06:48;;;;;;;;;19.33;16.33;;;;;15.13;63.93;102201.66;5019259;28;45434;-73
2023/10/06 02:09:25;;;;;;;;;16.33;15.33;;;;;14.92;64.16;102154.88;5020765;28;45446;-74
2023/10/06 02:11:50;;;;;;;;;14.33;14.33;;;;;15.02;63.80;102186.63;5020295;28;45478;-73
2023/10/06 02:14:17;;;;;;;;;16.33;12.67;;;;;15.00;64.28;102190.13;5018336;28;45447;-73
2023/10/06 02:16:48;;;;;;;;;18.00;14.33;;;;;14.96;64.25;102176.03;5018822;28;45650;-72
2023/10/06 02:19:17;;;;;;;;;21.67;16.33;;;;;14.85;64.03;102167.16;5019139;28;45866;-73
2023/10/06 02:21:44;;;;;;;;;21.33;16.67;;;;;15.01;64.23;102194.53;5019179;28;45358;-73
2023/10/06 02:24:10;;;;;;;;;17.33;14.33;;;;;14.91;64.64;102188.31;5018224;28;45451;-71
2023/10/06 02:26:36;;;;;;;;;22.67;20.00;;;;;14.96;64.70;102194.50;5019417;28;45454;-72
2023/10/06 02:29:07;;;;;;;;;19.33;14.67;;;;;14.93;64.60;102191.84;5018569;28;45336;-72
2023/10/06 02:31:36;;;;;;;;;18.00;16.33;;;;;14.82;64.95;102164.50;5016604;28;45644;-72
2023/10/06 02:34:04;;;;;;;;;17.00;14.33;;;;;14.95;64.83;102189.19;5033485;28;45751;-73
2023/10/06 02:36:31;;;;;;;;;15.33;15.00;;;;;14.51;64.94;102122.03;5022542;28;45552;-73
2023/10/06 02:38:56;;;;;;;;;15.00;14.67;;;;;14.28;64.70;102074.41;5026704;28;45390;-72
2023/10/06 02:41:27;;;;;;;;;17.67;13.00;;;;;14.91;64.85;102190.06;5028950;28;45526;-73
2023/10/06 02:43:54;;;;;;;;;20.75;17.25;;;;;14.71;65.35;102158.25;5032139;28;45185;-74
2023/10/06 02:46:25;;;;;;;;;16.50;13.00;;;;;14.71;65.67;102171.44;5021613;28;45444;-74
2023/10/06 02:48:51;;;;;;;;;15.33;14.33;;;;;14.81;65.83;102183.84;5018583;28;45640;-74
2023/10/06 02:51:32;;;;;;;;;24.00;16.33;;;;;14.67;65.56;102167.03;5016730;28;45312;-73
2023/10/06 02:54:46;;;;;;;;;21.67;14.67;;;;;14.72;65.46;102179.38;5018836;28;46625;-73
2023/10/06 02:56:50;;;;;;;;;19.75;16.25;;;;;14.67;65.60;102182.84;5012140;28;45446;-73
2023/10/06 02:59:21;;;;;;;;;13.67;12.67;;;;;14.62;65.79;102161.72;5018652;28;45484;-72
2023/10/06 03:01:52;;;;;;;;;18.33;16.33;;;;;14.67;66.21;102182.84;5034555;28;45261;-72
2023/10/06 03:04:22;;;;;;;;;24.75;17.00;;;;;14.53;66.04;102158.97;5017037;28;46787;-73
2023/10/06 03:06:55;;;;;;;;;14.67;13.67;;;;;14.47;66.07;102161.53;5018796;28;45446;-74
2023/10/06 03:09:27;;;;;;;;;24.75;17.75;;;;;14.40;66.64;102158.88;5018317;28;45913;-73
2023/10/06 03:11:57;;;;;;;;;16.75;13.00;;;;;14.47;66.50;102194.06;5018025;28;45870;-73
2023/10/06 03:14:37;;;;;;;;;22.25;19.00;;;;;14.40;66.90;102197.50;5017685;28;45437;-73
2023/10/06 03:17:11;;;;;;;;;21.00;15.25;;;;;14.31;66.70;102187.78;5018782;28;45572;-73
2023/10/06 03:19:41;;;;;;;;;17.33;15.00;;;;;14.40;67.02;102190.50;5017537;28;45416;-74
2023/10/06 03:22:13;;;;;;;;;18.50;14.75;;;;;14.34;66.56;102208.00;5017476;28;45497;-72
2023/10/06 03:24:53;;;;;;;;;18.00;16.00;;;;;14.30;66.88;102196.53;5017771;28;45905;-73
2023/10/06 03:27:22;;;;;;;;;20.50;16.25;;;;;14.24;66.30;102171.88;5018864;28;45480;-71
2023/10/06 03:29:54;;;;;;;;;21.50;18.25;;;;;14.25;67.00;102179.78;5017840;28;45501;-71
2023/10/06 03:32:32;;;;;;;;;15.75;12.75;;;;;13.79;66.62;102102.94;5017447;28;45527;-72
2023/10/06 03:37:51;;;;;;;;;22.00;15.00;;;;;14.18;66.95;102175.34;5017061;28;45428;-71
2023/10/06 03:40:35;;;;;;;;;20.00;19.00;;;;;13.97;66.51;102141.75;5017816;28;45495;-71
2023/10/06 03:43:05;;;;;;;;;18.33;16.00;;;;;13.99;67.07;102159.31;5017793;28;45496;-71
2023/10/06 03:45:32;;;;;;;;;19.67;15.00;;;;;14.04;67.17;102155.88;5018789;28;46363;-69
2023/10/06 03:48:13;;;;;;;;;24.50;19.25;;;;;14.13;67.32;102177.91;5017894;28;45508;-71
2023/10/06 03:50:41;;;;;;;;;19.50;13.75;;;;;14.24;67.45;102193.84;5016902;28;45518;-71
2023/10/06 03:53:08;;;;;;;;;18.00;17.00;;;;;14.20;66.99;102197.31;5016897;28;45383;-71
2023/10/06 03:55:45;;;;;;;;;19.25;16.25;;;;;14.15;67.13;102196.41;5016049;28;47954;-71
2023/10/06 03:58:14;;;;;;;;;27.50;19.00;;;;;13.87;67.55;102158.31;5017157;28;45473;-71
2023/10/06 04:00:41;;;;;;;;;19.50;19.50;;;;;14.11;67.86;102194.59;5018212;28;45571;-70
2023/10/06 04:03:13;;;;;;;;;22.00;17.25;;;;;14.04;67.46;102185.72;5018227;28;45346;-73
2023/10/06 04:05:44;;;;;;;;;22.25;18.75;;;;;14.06;67.94;102209.47;5018003;28;46614;-73
2023/10/06 04:08:16;;;;;;;;;19.50;16.25;;;;;13.34;68.28;102077.88;5004397;28;45521;-73
2023/10/06 04:10:45;;;;;;;;;18.75;15.50;;;;;13.94;68.40;102194.41;5017387;28;45372;-74
2023/10/06 04:13:12;;;;;;;;;19.25;17.00;;;;;13.96;68.64;102195.31;5016857;28;45628;-72
2023/10/06 04:15:39;;;;;;;;;25.00;16.50;;;;;13.84;68.00;102187.28;5016644;28;45514;-73
2023/10/06 04:18:24;;;;;;;;;22.75;17.25;;;;;13.93;68.91;102204.06;5031849;28;45485;-71
2023/10/06 04:20:54;;;;;;;;;23.50;17.75;;;;;13.90;68.58;102218.94;5032466;28;45462;-73
2023/10/06 04:23:24;;;;;;;;;17.00;13.75;;;;;13.85;68.63;102208.34;5015753;28;45531;-74
2023/10/06 04:26:01;;;;;;;;;17.33;15.67;;;;;13.78;68.57;102188.94;5015401;28;45471;-73
2023/10/06 04:28:29;;;;;;;;;28.75;15.75;;;;;13.26;68.92;102111.94;5016315;28;45729;-73
2023/10/06 04:31:00;;;;;;;;;13.75;13.25;;;;;13.63;68.72;102158.94;5016737;28;45729;-73
2023/10/06 04:33:38;;;;;;;;;17.00;15.25;;;;;13.79;69.27;102195.13;5016951;28;45511;-75
2023/10/06 04:36:07;;;;;;;;;25.00;18.25;;;;;13.68;69.02;102178.28;5016947;28;46413;-76
2023/10/06 04:38:40;;;;;;;;;22.50;19.75;;;;;13.59;68.68;102147.47;5015087;28;45566;-72
2023/10/06 04:41:08;;;;;;;;;16.50;15.00;;;;;13.62;68.85;102167.69;5016491;28;45870;-74
2023/10/06 04:43:36;;;;;;;;;20.75;13.75;;;;;13.15;69.13;102074.09;5018214;28;45414;-76
2023/10/06 04:46:05;;;;;;;;;20.75;17.50;;;;;13.69;68.74;102166.88;5017246;28;45356;-76
2023/10/06 04:48:32;;;;;;;;;21.50;13.50;;;;;13.39;69.07;102123.53;5028770;28;45500;-74
2023/10/06 04:50:58;;;;;;;;;18.75;14.50;;;;;13.78;68.83;102180.16;5027116;28;45526;-78
2023/10/06 04:53:23;;;;;;;;;18.50;16.50;;;;;13.91;68.76;102205.78;5018756;28;45473;-77
2023/10/06 04:55:51;;;;;;;;;18.50;15.25;;;;;13.97;68.36;102204.97;5017073;28;45528;-78
2023/10/06 04:58:20;;;;;;;;;18.75;17.75;;;;;13.94;68.33;102202.31;5017266;28;45450;-79
2023/10/06 05:00:53;;;;;;;;;18.50;16.50;;;;;13.81;68.29;102163.50;5019869;28;45489;-80
2023/10/06 05:03:19;;;;;;;;;18.50;15.75;;;;;13.70;68.49;102159.00;5018414;28;45208;-79
2023/10/06 05:06:07;;;;;;;;;22.50;18.25;;;;;13.60;68.40;102137.84;5018086;28;46182;-79
2023/10/06 05:08:33;;;;;;;;;16.25;15.00;;;;;13.10;68.61;102058.25;5018566;28;45493;-79
2023/10/06 05:10:58;;;;;;;;;21.00;19.50;;;;;13.37;68.70;102098.94;5017438;28;45378;-78
2023/10/06 05:13:26;;;;;;;;;19.00;19.00;;;;;13.90;68.98;102198.75;5004854;28;45476;-81
2023/10/06 05:15:55;;;;;;;;;21.50;19.00;;;;;13.60;69.00;102151.88;5016644;28;45954;-76
2023/10/06 05:18:24;;;;;;;;;21.00;20.00;;;;;13.10;69.17;102065.28;5016381;28;45752;-80
2023/10/06 05:20:52;;;;;;;;;22.25;18.00;;;;;12.52;68.93;101994.34;5028821;28;45318;-76
2023/10/06 05:23:23;;;;;;;;;26.00;20.25;;;;;13.40;68.82;102140.22;5018833;28;45491;-79
2023/10/06 05:25:57;;;;;;;;;24.00;20.50;;;;;13.52;69.09;102170.19;5019507;28;45411;-75
2023/10/06 05:28:25;;;;;;;;;22.75;19.75;;;;;13.34;69.12;102138.41;5020354;28;45521;-80
2023/10/06 05:30:51;;;;;;;;;21.00;15.75;;;;;12.85;69.04;102064.91;5018504;28;45382;-75
2023/10/06 05:33:17;;;;;;;;;24.25;20.25;;;;;13.51;69.58;102200.03;5018748;28;45442;-77
2023/10/06 05:35:46;;;;;;;;;26.00;16.75;;;;;13.49;69.55;102191.22;5018559;28;48067;-75
2023/10/06 05:38:15;;;;;;;;;20.00;15.25;;;;;13.22;70.02;102144.34;5033751;28;45207;-76
2023/10/06 05:40:41;;;;;;;;;20.75;17.50;;;;;13.54;69.80;102205.31;5019333;28;45470;-78
2023/10/06 05:43:16;;;;;;;;;21.50;17.25;;;;;12.54;69.20;102018.91;5021065;28;45500;-79
2023/10/06 05:45:57;;;;;;;;;19.75;19.75;;;;;13.45;69.92;102194.66;5021317;28;45871;-80
2023/10/06 05:48:25;;;;;;;;;7.75;1.00;;;;;13.02;69.48;102124.75;5019105;28;45538;-80
2023/10/06 05:50:52;;;;;;;;;22.50;18.50;;;;;13.43;69.38;102196.41;5014767;28;45431;-81
2023/10/06 05:53:23;;;;;;;;;23.00;18.00;;;;;13.41;69.52;102199.91;5018153;28;45485;-76
2023/10/06 05:55:52;;;;;;;;;27.50;19.25;;;;;13.19;69.65;102167.09;5020865;28;45565;-75
2023/10/06 05:58:23;;;;;;;;;22.25;18.75;;;;;13.31;69.81;102193.59;5021469;28;45414;-76
2023/10/06 06:00:55;;;;;;;;;24.75;19.75;;;;;13.38;69.82;102194.56;5016195;28;45487;-77
2023/10/06 06:03:26;;;;;;;;;22.25;18.50;;;;;13.21;69.88;102171.50;5013986;28;45388;-77
2023/10/06 06:05:53;;;;;;;;;19.75;17.75;;;;;13.45;68.98;102201.69;5020125;28;45438;-75
2023/10/06 06:08:21;;;;;;;;;23.25;20.25;;;;;12.54;69.83;102057.47;5015717;28;45249;-78
2023/10/06 06:10:56;;;;;;;;;26.25;19.75;;;;;13.25;69.79;102206.66;5021206;28;45413;-75
2023/10/06 06:13:22;;;;;;;;;25.25;22.75;;;;;13.00;69.93;102172.06;5012368;28;45506;-73
2023/10/06 06:15:48;;;;;;;;;30.75;23.75;;;;;13.04;70.41;102189.66;5018978;28;45470;-76
2023/10/06 06:18:18;;;;;;;;;27.50;20.50;;;;;13.21;70.16;102210.97;5019870;28;45924;-75
2023/10/06 06:20:45;;;;;;;;;22.00;18.25;;;;;12.97;69.70;102186.94;5020339;28;45392;-77
2023/10/06 06:23:15;;;;;;;;;31.25;23.00;;;;;13.05;70.59;102199.34;5022979;28;45453;-79
2023/10/06 06:25:42;;;;;;;;;28.50;25.00;;;;;12.57;70.16;102113.56;5021847;28;46200;-79
2023/10/06 06:28:08;;;;;;;;;29.25;24.75;;;;;13.18;70.67;102221.44;5022589;28;45559;-81
2023/10/06 06:30:37;;;;;;;;;25.25;22.50;;;;;13.19;69.77;102232.84;5020748;28;45397;-80
2023/10/06 06:33:19;;;;;;;;;24.25;20.75;;;;;13.11;69.71;102199.41;5021457;28;45507;-78
2023/10/06 06:35:45;;;;;;;;;24.50;22.00;;;;;13.08;69.74;102209.03;5015880;28;46155;-74
2023/10/06 06:38:12;;;;;;;;;32.50;24.50;;;;;13.18;70.05;102218.81;5021800;28;45402;-79
2023/10/06 06:40:38;;;;;;;;;26.75;22.25;;;;;13.24;69.07;102215.38;5027495;28;45374;-79
2023/10/06 06:43:09;;;;;;;;;22.50;19.75;;;;;13.43;68.78;102235.00;5032754;28;45638;-80
2023/10/06 06:45:39;;;;;;;;;21.25;18.50;;;;;12.84;69.13;102130.66;5049047;28;47556;-76
2023/10/06 06:48:13;;;;;;;;;30.25;22.75;;;;;13.55;68.16;102235.19;5031436;28;45617;-82
2023/10/06 06:50:42;;;;;;;;;28.50;25.25;;;;;13.63;68.48;102230.00;5016294;28;45490;-80
2023/10/06 06:53:09;;;;;;;;;22.00;21.00;;;;;13.64;67.79;102216.84;5017203;28;45676;-81
2023/10/06 06:55:35;;;;;;;;;30.00;24.50;;;;;13.80;67.93;102231.09;5039487;28;48042;-74
2023/10/06 06:58:10;;;;;;;;;36.25;24.50;;;;;13.35;67.19;102141.03;5014551;28;45452;-81
2023/10/06 07:00:40;;;;;;;;;25.75;20.25;;;;;13.50;67.18;102163.13;5037541;28;45403;-82
2023/10/06 07:03:06;;;;;;;;;27.25;24.25;;;;;13.96;67.01;102227.78;5035911;28;46320;-80
2023/10/06 07:05:36;;;;;;;;;29.00;23.75;;;;;13.79;66.56;102201.25;5023159;28;46432;-77
2023/10/06 07:08:06;;;;;;;;;26.50;23.75;;;;;13.67;66.42;102163.38;5023057;28;46092;-80
2023/10/06 07:10:33;;;;;;;;;24.25;22.25;;;;;14.12;66.20;102234.13;5040475;28;45446;-73
2023/10/06 07:13:00;;;;;;;;;27.75;24.25;;;;;14.16;66.38;102238.53;5012519;28;44755;-78
2023/10/06 07:15:29;;;;;;;;;26.25;21.50;;;;;14.16;66.00;102227.13;5018693;28;46846;-82
2023/10/06 07:17:56;;;;;;;;;23.25;21.50;;;;;14.21;65.46;102225.44;5017611;28;45411;-76
2023/10/06 07:20:27;;;;;;;;;30.50;22.75;;;;;14.28;65.35;102232.53;5021889;28;46811;-77
2023/10/06 07:23:01;;;;;;;;;22.00;20.00;;;;;14.24;65.61;102221.94;5032214;28;45518;-74
2023/10/06 07:25:31;;;;;;;;;25.25;22.50;;;;;14.23;65.57;102234.22;5019574;28;45690;-79
2023/10/06 07:27:58;;;;;;;;;27.50;24.25;;;;;14.19;65.98;102237.72;5023298;28;45586;-73
2023/10/06 07:30:27;;;;;;;;;28.50;24.25;;;;;14.29;65.66;102231.69;5023395;28;45395;-79
2023/10/06 07:32:56;;;;;;;;;31.75;26.50;;;;;14.37;65.62;102243.16;5024547;28;45444;-72
2023/10/06 07:35:31;;;;;;;;;31.00;25.50;;;;;14.27;65.59;102236.03;5029916;28;46577;-80
2023/10/06 07:37:58;;;;;;;;;28.25;26.50;;;;;14.42;65.57;102241.47;5007192;28;45387;-80
2023/10/06 07:40:27;;;;;;;;;29.25;25.25;;;;;14.50;65.01;102257.38;5024714;28;45402;-82
2023/10/06 07:42:55;;;;;;;;;25.75;22.75;;;;;14.40;64.81;102222.13;5018042;28;45330;-76
2023/10/06 07:45:21;;;;;;;;;26.25;25.00;;;;;14.04;64.46;102169.03;5018047;28;45293;-80
2023/10/06 07:47:48;;;;;;;;;32.25;24.00;;;;;14.69;64.89;102255.84;5018720;28;45488;-81
2023/10/06 07:50:16;;;;;;;;;26.25;25.25;;;;;14.29;64.22;102178.97;5017928;28;45394;-73
2023/10/06 07:52:46;;;;;;;;;25.25;22.75;;;;;14.33;64.15;102193.03;5017137;28;45579;-73
2023/10/06 07:55:12;;;;;;;;;25.25;23.50;;;;;14.96;64.10;102254.31;5022546;28;45757;-73
2023/10/06 07:57:42;;;;;;;;;26.50;19.25;;;;;14.59;63.81;102165.22;5016908;28;45489;-74
2023/10/06 08:00:09;;;;;;;;;28.25;23.25;;;;;15.19;63.03;102258.00;5017461;28;45389;-73
2023/10/06 08:02:39;;;;;;;;;32.25;25.25;;;;;15.13;63.18;102251.78;5017528;28;45434;-75
2023/10/06 08:05:11;;;;;;;;;26.25;24.50;;;;;15.14;63.14;102254.44;5020392;28;45580;-77
2023/10/06 08:07:42;;;;;;;;;27.50;23.50;;;;;15.16;63.03;102230.69;5040990;28;45371;-74
2023/10/06 08:10:13;;;;;;;;;34.50;28.00;;;;;15.46;62.94;102269.59;5015382;28;45751;-74
2023/10/06 08:12:44;;;;;;;;;30.00;26.00;;;;;15.23;62.58;102222.84;5017187;28;45435;-75
2023/10/06 08:15:17;;;;;;;;;28.50;24.75;;;;;15.49;61.67;102243.22;5016759;28;45568;-74
2023/10/06 08:17:46;;;;;;;;;30.75;26.00;;;;;15.65;61.67;102263.56;5016461;28;45422;-75
2023/10/06 08:20:14;;;;;;;;;33.50;27.25;;;;;15.72;61.87;102261.88;5032125;28;45424;-76
2023/10/06 08:22:41;;;;;;;;;35.75;28.50;;;;;15.86;61.24;102264.59;5016738;28;45524;-77
2023/10/06 08:25:06;;;;;;;;;33.50;24.75;;;;;15.65;61.34;102237.13;5014941;28;46693;-74
2023/10/06 08:27:33;;;;;;;;;29.75;27.00;;;;;16.03;61.28;102269.94;5031210;28;45869;-73
2023/10/06 08:29:58;;;;;;;;;37.25;29.00;;;;;16.20;60.67;102283.19;5016481;28;45442;-73
2023/10/06 08:32:24;;;;;;;;;31.00;22.50;;;;;15.89;60.35;102217.03;5016453;28;45518;-74
2023/10/06 08:34:51;;;;;;;;;33.50;28.50;;;;;16.26;60.21;102277.94;5016436;28;46089;-73
2023/10/06 08:37:17;;;;;;;;;37.50;32.25;;;;;16.21;60.66;102266.47;5016092;28;45392;-75
2023/10/06 08:39:49;;;;;;;;;35.25;30.50;;;;;16.39;60.04;102284.16;5015537;28;45516;-74
2023/10/06 08:42:18;;;;;;;;;31.00;27.50;;;;;16.23;59.82;102225.03;5016690;28;45561;-74
2023/10/06 08:44:45;;;;;;;;;30.00;29.50;;;;;16.74;59.75;102281.56;5015995;28;46642;-72
2023/10/06 08:47:13;;;;;;;;;29.25;28.25;;;;;16.77;58.89;102247.16;5014697;28;45505;-73
2023/10/06 08:49:48;;;;;;;;;36.50;32.25;;;;;16.90;58.85;102243.69;5016678;28;45520;-74
2023/10/06 08:52:18;;;;;;;;;39.75;30.50;;;;;16.75;58.30;102206.59;5007913;28;45974;-75
2023/10/06 08:54:45;;;;;;;;;30.00;28.25;;;;;17.25;58.28;102268.34;5015674;28;45505;-74
2023/10/06 08:57:15;;;;;;;;;33.25;28.75;;;;;17.30;57.91;102248.94;5012806;28;46593;-73
2023/10/06 08:59:41;;;;;;;;;35.00;28.75;;;;;17.56;57.07;102259.47;5013418;28;45417;-72
2023/10/06 09:02:10;;;;;;;;;27.33;26.00;;;;;17.85;57.01;102277.09;5013460;28;45450;-75
2023/10/06 09:04:37;;;;;;;;;32.00;27.33;;;;;17.74;56.47;102239.09;5015909;28;46144;-77
2023/10/06 09:07:12;;;;;;;;;40.25;31.00;;;;;17.68;56.48;102231.19;5015295;28;45423;-76
2023/10/06 09:09:38;;;;;;;;;36.00;29.00;;;;;18.20;56.32;102284.00;5013727;28;45484;-78
2023/10/06 09:12:04;;;;;;;;;34.50;30.50;;;;;17.93;55.72;102206.34;5013880;28;45454;-76
2023/10/06 09:14:31;;;;;;;;;31.67;29.67;;;;;18.12;55.50;102225.69;5015199;28;45568;-77
2023/10/06 09:17:01;;;;;;;;;39.75;33.25;;;;;18.54;54.49;102273.19;5015945;28;45276;-77
2023/10/06 09:19:46;;;;;;;;;46.25;32.75;;;;;17.98;54.98;102193.94;5010545;28;45579;-76
2023/10/06 09:22:11;;;;;;;;;34.00;27.33;;;;;18.46;54.84;102261.72;5013249;28;45521;-78
2023/10/06 09:24:39;;;;;;;;;29.00;27.33;;;;;18.34;54.81;102230.84;5014096;28;45640;-74
2023/10/06 09:27:25;;;;;;;;;29.67;27.00;;;;;18.83;54.65;102278.31;5013342;28;45664;-78
2023/10/06 09:30:16;;;;;;;;;40.33;32.33;;;;;18.70;54.88;102224.44;5010222;28;45511;-70
2023/10/06 09:32:42;;;;;;;;;41.67;29.67;;;;;19.18;54.04;102275.34;5005057;28;45487;-72
2023/10/06 09:35:22;;;;;;;;;36.67;33.00;;;;;19.25;53.59;102282.38;5011172;28;46577;-73
2023/10/06 09:37:48;;;;;;;;;31.33;27.33;;;;;19.39;53.00;102281.38;5014401;28;45272;-73
2023/10/06 09:40:23;;;;;;;;;32.33;30.00;;;;;19.32;52.68;102253.97;5014527;28;45441;-73
2023/10/06 09:42:54;;;;;;;;;32.67;26.00;;;;;19.48;52.69;102263.56;5027215;28;45865;-73
2023/10/06 09:45:24;;;;;;;;;38.33;32.00;;;;;19.62;52.91;102265.16;5013611;28;46042;-72
2023/10/06 09:47:59;;;;;;;;;28.67;24.67;;;;;19.38;52.34;102199.88;5010298;28;45467;-68
2023/10/06 09:50:26;;;;;;;;;37.00;31.67;;;;;19.90;52.44;102263.97;5014302;28;45552;-73
2023/10/06 09:52:52;;;;;;;;;25.67;22.33;;;;;20.19;51.24;102270.69;5017133;28;45402;-72
2023/10/06 09:55:25;;;;;;;;;35.33;26.00;;;;;20.37;50.23;102269.56;5015989;28;45593;-73
2023/10/06 09:57:52;;;;;;;;;27.00;23.00;;;;;20.62;50.45;102270.09;5016665;28;45596;-73
2023/10/06 10:00:19;;;;;;;;;24.33;22.33;;;;;20.41;49.34;102175.47;5016251;28;45383;-70
2023/10/06 10:02:47;;;;;;;;;25.33;21.33;;;;;21.17;49.08;102247.84;5017409;28;45562;-72
2023/10/06 10:05:22;;;;;;;;;28.00;23.33;;;;;21.35;48.97;102229.75;5023977;28;46779;-73
2023/10/06 10:07:51;;;;;;;;;33.67;24.67;;;;;21.94;47.73;102261.50;5017416;28;45368;-73
2023/10/06 10:10:22;;;;;;;;;22.33;20.67;;;;;21.89;46.11;102170.03;5015840;28;45512;-72
2023/10/06 10:13:12;;;;;;;;;21.67;20.00;;;;;22.70;45.56;102263.34;5016852;28;45845;-74
2023/10/06 10:15:44;;;;;;;;;31.33;26.33;;;;;23.02;45.25;102260.78;5022924;28;47202;-72
2023/10/06 10:18:31;;;;;;;;;29.00;26.67;;;;;23.26;43.32;102259.25;5013412;28;45404;-72
2023/10/06 10:20:59;;;;;;;;;29.67;22.33;;;;;23.63;43.43;102252.91;5015756;28;45448;-74
2023/10/06 10:23:29;;;;;;;;;25.00;20.67;;;;;24.09;42.24;102246.22;5015768;28;45549;-72
2023/10/06 10:26:03;;;;;;;;;22.67;21.00;;;;;25.70;40.81;102244.38;5025126;28;45626;-73
2023/10/06 10:28:28;;;;;;;;;20.67;17.00;;;;;27.95;36.90;102238.53;5014244;28;45414;-73
2023/10/06 10:30:59;;;;;;;;;27.00;19.67;;;;;29.42;33.50;102203.28;5016163;28;45401;-75
2023/10/06 10:33:34;;;;;;;;;26.67;23.33;;;;;30.47;32.21;102230.72;5015717;28;45446;-75
2023/10/06 10:36:17;;;;;;;;;19.00;16.00;;;;;30.88;30.27;102197.69;5014230;28;46408;-73
2023/10/06 10:38:56;;;;;;;;;13.50;11.50;;;;;31.88;28.38;102239.22;5015822;28;45501;-76
2023/10/06 10:41:26;;;;;;;;;13.50;10.25;;;;;33.09;26.26;102177.84;5015019;28;45352;-75
2023/10/06 10:43:55;;;;;;;;;13.00;10.00;;;;;34.47;25.31;102203.06;5016260;28;45458;-75
2023/10/06 10:46:42;;;;;;;;;14.50;12.75;;;;;34.92;24.33;102137.03;5015680;28;46158;-78
2023/10/06 10:49:13;;;;;;;;;14.20;10.00;;;;;35.93;22.44;102191.53;5015313;28;45556;-70
2023/10/06 10:52:02;;;;;;;;;11.20;7.60;;;;;36.68;21.84;102195.22;5016313;28;45889;-78
2023/10/06 10:54:32;;;;;;;;;9.60;6.20;;;;;37.01;21.56;102136.81;5031320;28;45698;-74
2023/10/06 10:57:05;;;;;;;;;8.80;6.40;;;;;37.90;19.34;102185.34;5018083;28;45420;-75
2023/10/06 11:02:42;;;;;;;;;8.80;7.20;;;;;37.54;20.40;102184.94;5017233;28;45394;-75
2023/10/06 11:05:09;;;;;;;;;9.00;8.00;;;;;38.06;20.28;102147.38;5017982;28;45334;-74
2023/10/06 11:07:36;;;;;;;;;11.00;7.40;;;;;38.72;19.54;102143.88;5016473;28;46541;-75
2023/10/06 11:10:03;;;;;;;;;7.60;6.60;;;;;39.35;18.48;102175.28;5018127;28;45469;-75
2023/10/06 11:12:30;;;;;;;;;6.80;6.40;;;;;39.57;18.96;102161.19;5018868;28;45435;-75
2023/10/06 11:15:20;;;;;;;;;9.80;9.40;;;;;39.98;18.72;102166.28;5018910;28;45421;-74
2023/10/06 11:17:46;;;;;;;;;7.40;7.40;;;;;40.37;18.54;102172.34;5023948;28;46725;-74
2023/10/06 11:20:15;;;;;;;;;9.20;7.40;;;;;40.66;17.26;102144.59;5017003;28;45339;-74
2023/10/06 11:22:54;;;;;;;;;7.20;6.00;;;;;40.97;16.92;102157.00;5017509;28;45530;-74
2023/10/06 11:25:27;;;;;;;;;13.40;8.40;;;;;40.72;17.15;102131.25;5017550;28;45340;-76
2023/10/06 11:28:03;;;;;;;;;11.60;7.00;;;;;40.46;17.67;102121.09;5018471;28;45485;-75
2023/10/06 11:30:33;;;;;;;;;7.20;6.40;;;;;40.56;17.38;102096.31;5016974;28;45497;-76
2023/10/06 11:33:02;;;;;;;;;10.80;8.20;;;;;40.94;16.53;102133.47;5017615;28;45430;-76